Terminal Aerodrome Forecast
Issued by NWS

Home | Current Version | Previous Version | Text Only | Print | Product List | Glossary On
Versions: 1 2 3 4 5 6 7 8 9 10 11 12 13 14 15 16 17 18
000
FTUS43 KICT 250500
TAFHUT
TAF
KHUT 250520Z 2506/2606 15014G20KT P6SM SCT200
     FM251200 19012KT P6SM SCT250
     FM251500 21022G32KT P6SM SCT250
     FM260100 18014KT P6SM FEW090 SCT150=

USA.gov is the U.S. government's official web portal to all federal, state and local government web resources and services.